sensor_id;sensor_type;location;lat;lon;timestamp;temperature;humidity
55693;DHT22;41590;53.366;5.212;2023-04-21T00:00:51;8.20;99.90
55693;DHT22;41590;53.366;5.212;2023-04-21T00:03:30;9.10;99.90
55693;DHT22;41590;53.366;5.212;2023-04-21T00:06:27;8.80;99.90
55693;DHT22;41590;53.366;5.212;2023-04-21T00:12:37;8.10;99.90
55693;DHT22;41590;53.366;5.212;2023-04-21T00:15:09;8.40;99.90
55693;DHT22;41590;53.366;5.212;2023-04-21T00:18:13;8.20;99.90
55693;DHT22;41590;53.366;5.212;2023-04-21T00:24:30;8.90;99.90
55693;DHT22;41590;53.366;5.212;2023-04-21T00:27:27;8.20;99.90
55693;DHT22;41590;53.366;5.212;2023-04-21T00:30:04;8.90;99.90
55693;DHT22;41590;53.366;5.212;2023-04-21T00:32:32;9.00;99.90
55693;DHT22;41590;53.366;5.212;2023-04-21T00:35:23;8.90;99.90
55693;DHT22;41590;53.366;5.212;2023-04-21T00:37:50;8.20;99.90
55693;DHT22;41590;53.366;5.212;2023-04-21T00:40:17;8.20;99.90
55693;DHT22;41590;53.366;5.212;2023-04-21T00:42:48;9.00;99.90
55693;DHT22;41590;53.366;5.212;2023-04-21T00:45:13;8.20;99.90
55693;DHT22;41590;53.366;5.212;2023-04-21T00:47:44;9.00;99.90
55693;DHT22;41590;53.366;5.212;2023-04-21T00:50:11;8.10;99.90
55693;DHT22;41590;53.366;5.212;2023-04-21T00:52:47;8.90;99.90
55693;DHT22;41590;53.366;5.212;2023-04-21T00:55:21;8.10;99.90
55693;DHT22;41590;53.366;5.212;2023-04-21T00:57:51;8.90;99.90
55693;DHT22;41590;53.366;5.212;2023-04-21T01:00:20;9.00;99.90
55693;DHT22;41590;53.366;5.212;2023-04-21T01:02:57;8.20;99.90
55693;DHT22;41590;53.366;5.212;2023-04-21T01:05:27;8.80;99.90
55693;DHT22;41590;53.366;5.212;2023-04-21T01:07:53;8.90;99.90
55693;DHT22;41590;53.366;5.212;2023-04-21T01:10:20;8.30;99.90
55693;DHT22;41590;53.366;5.212;2023-04-21T01:12:56;8.10;99.90
55693;DHT22;41590;53.366;5.212;2023-04-21T01:15:32;8.70;99.90
55693;DHT22;41590;53.366;5.212;2023-04-21T01:18:04;8.90;99.90
55693;DHT22;41590;53.366;5.212;2023-04-21T01:20:48;8.10;99.90
55693;DHT22;41590;53.366;5.212;2023-04-21T01:23:21;8.50;99.90
55693;DHT22;41590;53.366;5.212;2023-04-21T01:26:04;8.90;99.90
55693;DHT22;41590;53.366;5.212;2023-04-21T01:28:43;8.00;99.90
55693;DHT22;41590;53.366;5.212;2023-04-21T01:34:21;7.70;99.90
55693;DHT22;41590;53.366;5.212;2023-04-21T01:36:57;8.20;99.90
55693;DHT22;41590;53.366;5.212;2023-04-21T01:39:29;7.80;99.90
55693;DHT22;41590;53.366;5.212;2023-04-21T01:45:46;8.70;99.90
55693;DHT22;41590;53.366;5.212;2023-04-21T01:48:53;7.60;99.90
55693;DHT22;41590;53.366;5.212;2023-04-21T01:51:57;8.60;99.90
55693;DHT22;41590;53.366;5.212;2023-04-21T01:54:40;8.50;99.90
55693;DHT22;41590;53.366;5.212;2023-04-21T02:01:03;7.70;99.90
55693;DHT22;41590;53.366;5.212;2023-04-21T02:03:34;8.20;99.90
55693;DHT22;41590;53.366;5.212;2023-04-21T02:06:17;8.20;99.90
55693;DHT22;41590;53.366;5.212;2023-04-21T02:09:11;8.30;99.90
55693;DHT22;41590;53.366;5.212;2023-04-21T02:11:59;7.60;99.90
55693;DHT22;41590;53.366;5.212;2023-04-21T02:14:32;8.30;99.90
55693;DHT22;41590;53.366;5.212;2023-04-21T02:17:13;8.30;99.90
55693;DHT22;41590;53.366;5.212;2023-04-21T02:20:03;8.40;99.90
55693;DHT22;41590;53.366;5.212;2023-04-21T02:25:40;8.40;99.90
55693;DHT22;41590;53.366;5.212;2023-04-21T02:28:35;7.80;99.90
55693;DHT22;41590;53.366;5.212;2023-04-21T02:37:54;8.20;99.90
55693;DHT22;41590;53.366;5.212;2023-04-21T02:40:22;7.80;99.90
55693;DHT22;41590;53.366;5.212;2023-04-21T02:42:56;7.80;99.90
55693;DHT22;41590;53.366;5.212;2023-04-21T02:45:36;8.20;99.90
55693;DHT22;41590;53.366;5.212;2023-04-21T02:48:11;8.20;99.90
55693;DHT22;41590;53.366;5.212;2023-04-21T02:50:44;8.30;99.90
55693;DHT22;41590;53.366;5.212;2023-04-21T02:53:28;8.40;99.90
55693;DHT22;41590;53.366;5.212;2023-04-21T02:56:14;7.30;99.90
55693;DHT22;41590;53.366;5.212;2023-04-21T02:58:46;8.30;99.90
55693;DHT22;41590;53.366;5.212;2023-04-21T03:01:23;7.20;99.90
55693;DHT22;41590;53.366;5.212;2023-04-21T03:04:23;7.70;99.90
55693;DHT22;41590;53.366;5.212;2023-04-21T03:06:58;8.90;99.90
55693;DHT22;41590;53.366;5.212;2023-04-21T03:09:23;8.30;99.90
55693;DHT22;41590;53.366;5.212;2023-04-21T03:12:07;8.30;99.90
55693;DHT22;41590;53.366;5.212;2023-04-21T03:14:39;7.70;99.90
55693;DHT22;41590;53.366;5.212;2023-04-21T03:17:06;8.50;99.90
55693;DHT22;41590;53.366;5.212;2023-04-21T03:19:53;7.70;99.90
55693;DHT22;41590;53.366;5.212;2023-04-21T03:22:43;8.20;99.90
55693;DHT22;41590;53.366;5.212;2023-04-21T03:25:28;7.70;99.90
55693;DHT22;41590;53.366;5.212;2023-04-21T03:27:54;8.10;99.90
55693;DHT22;41590;53.366;5.212;2023-04-21T03:30:28;8.40;99.90
55693;DHT22;41590;53.366;5.212;2023-04-21T03:32:55;7.90;99.90
55693;DHT22;41590;53.366;5.212;2023-04-21T03:35:31;7.90;99.90
55693;DHT22;41590;53.366;5.212;2023-04-21T03:38:27;7.80;99.90
55693;DHT22;41590;53.366;5.212;2023-04-21T03:44:13;8.30;99.90
55693;DHT22;41590;53.366;5.212;2023-04-21T03:46:44;7.80;99.90
55693;DHT22;41590;53.366;5.212;2023-04-21T03:49:24;8.60;99.90
55693;DHT22;41590;53.366;5.212;2023-04-21T03:52:10;7.90;99.90
55693;DHT22;41590;53.366;5.212;2023-04-21T03:54:51;9.20;99.90
55693;DHT22;41590;53.366;5.212;2023-04-21T04:01:52;8.00;99.90
55693;DHT22;41590;53.366;5.212;2023-04-21T04:04:26;8.00;99.90
55693;DHT22;41590;53.366;5.212;2023-04-21T04:10:12;8.60;99.90
55693;DHT22;41590;53.366;5.212;2023-04-21T04:12:40;8.00;99.90
55693;DHT22;41590;53.366;5.212;2023-04-21T04:15:20;8.10;99.90
55693;DHT22;41590;53.366;5.212;2023-04-21T04:28:10;8.70;99.90
55693;DHT22;41590;53.366;5.212;2023-04-21T04:31:23;8.10;99.90
55693;DHT22;41590;53.366;5.212;2023-04-21T04:33:58;8.50;99.90
55693;DHT22;41590;53.366;5.212;2023-04-21T04:40:14;7.80;99.90
55693;DHT22;41590;53.366;5.212;2023-04-21T04:54:12;8.40;99.90
55693;DHT22;41590;53.366;5.212;2023-04-21T05:00:29;8.30;99.90
55693;DHT22;41590;53.366;5.212;2023-04-21T05:07:46;8.50;99.90
55693;DHT22;41590;53.366;5.212;2023-04-21T05:18:05;8.00;99.90
55693;DHT22;41590;53.366;5.212;2023-04-21T05:20:33;8.30;99.90
55693;DHT22;41590;53.366;5.212;2023-04-21T05:23:06;7.90;99.90
55693;DHT22;41590;53.366;5.212;2023-04-21T05:25:39;8.10;99.90
55693;DHT22;41590;53.366;5.212;2023-04-21T05:36:17;8.50;99.90
55693;DHT22;41590;53.366;5.212;2023-04-21T05:47:08;8.00;99.90
55693;DHT22;41590;53.366;5.212;2023-04-21T05:53:15;8.00;99.90
55693;DHT22;41590;53.366;5.212;2023-04-21T05:59:55;8.80;99.90
55693;DHT22;41590;53.366;5.212;2023-04-21T06:06:48;8.90;99.90
55693;DHT22;41590;53.366;5.212;2023-04-21T06:13:33;8.20;99.90
55693;DHT22;41590;53.366;5.212;2023-04-21T06:16:00;8.30;99.90
55693;DHT22;41590;53.366;5.212;2023-04-21T06:22:43;8.20;99.90
55693;DHT22;41590;53.366;5.212;2023-04-21T06:25:45;8.40;99.90
55693;DHT22;41590;53.366;5.212;2023-04-21T06:34:55;8.70;99.90
55693;DHT22;41590;53.366;5.212;2023-04-21T06:41:27;8.60;99.90
55693;DHT22;41590;53.366;5.212;2023-04-21T06:43:56;9.10;99.90
55693;DHT22;41590;53.366;5.212;2023-04-21T06:47:17;8.60;99.90
55693;DHT22;41590;53.366;5.212;2023-04-21T06:56:58;8.60;99.90
55693;DHT22;41590;53.366;5.212;2023-04-21T06:59:37;9.40;99.90
55693;DHT22;41590;53.366;5.212;2023-04-21T07:02:17;8.90;99.90
55693;DHT22;41590;53.366;5.212;2023-04-21T07:04:45;8.80;99.90
55693;DHT22;41590;53.366;5.212;2023-04-21T07:07:30;9.20;99.90
55693;DHT22;41590;53.366;5.212;2023-04-21T07:09:58;8.80;99.90
55693;DHT22;41590;53.366;5.212;2023-04-21T07:12:52;9.30;99.90
55693;DHT22;41590;53.366;5.212;2023-04-21T07:15:29;9.60;99.90
55693;DHT22;41590;53.366;5.212;2023-04-21T07:17:55;9.50;99.90
55693;DHT22;41590;53.366;5.212;2023-04-21T07:20:26;9.00;99.90
55693;DHT22;41590;53.366;5.212;2023-04-21T07:23:07;9.50;99.90
55693;DHT22;41590;53.366;5.212;2023-04-21T07:25:49;9.20;99.90
55693;DHT22;41590;53.366;5.212;2023-04-21T07:28:17;9.00;99.90
55693;DHT22;41590;53.366;5.212;2023-04-21T07:30:43;9.70;99.90
55693;DHT22;41590;53.366;5.212;2023-04-21T07:33:12;9.60;99.90
55693;DHT22;41590;53.366;5.212;2023-04-21T07:35:51;10.20;99.90
55693;DHT22;41590;53.366;5.212;2023-04-21T07:38:18;10.10;99.90
55693;DHT22;41590;53.366;5.212;2023-04-21T07:40:48;10.00;99.90
55693;DHT22;41590;53.366;5.212;2023-04-21T07:43:39;10.30;99.90
55693;DHT22;41590;53.366;5.212;2023-04-21T07:46:38;10.00;99.90
55693;DHT22;41590;53.366;5.212;2023-04-21T07:49:21;10.60;99.90
55693;DHT22;41590;53.366;5.212;2023-04-21T07:52:09;10.70;99.90
55693;DHT22;41590;53.366;5.212;2023-04-21T07:54:45;10.30;99.90
55693;DHT22;41590;53.366;5.212;2023-04-21T07:57:22;10.90;99.90
55693;DHT22;41590;53.366;5.212;2023-04-21T07:59:48;10.50;99.90
55693;DHT22;41590;53.366;5.212;2023-04-21T08:02:24;10.60;99.90
55693;DHT22;41590;53.366;5.212;2023-04-21T08:05:10;10.90;99.90
55693;DHT22;41590;53.366;5.212;2023-04-21T08:07:47;10.80;99.90
55693;DHT22;41590;53.366;5.212;2023-04-21T08:10:14;11.40;99.90
55693;DHT22;41590;53.366;5.212;2023-04-21T08:12:45;10.90;99.90
55693;DHT22;41590;53.366;5.212;2023-04-21T08:15:16;11.60;99.90
55693;DHT22;41590;53.366;5.212;2023-04-21T08:17:45;11.10;99.90
55693;DHT22;41590;53.366;5.212;2023-04-21T08:26:05;11.10;99.90
55693;DHT22;41590;53.366;5.212;2023-04-21T08:28:35;11.60;99.90
55693;DHT22;41590;53.366;5.212;2023-04-21T08:31:07;11.30;99.90
55693;DHT22;41590;53.366;5.212;2023-04-21T08:33:34;11.50;99.90
55693;DHT22;41590;53.366;5.212;2023-04-21T08:38:29;11.40;99.90
55693;DHT22;41590;53.366;5.212;2023-04-21T08:41:02;11.70;99.90
55693;DHT22;41590;53.366;5.212;2023-04-21T08:44:00;11.70;99.90
55693;DHT22;41590;53.366;5.212;2023-04-21T08:46:32;11.90;99.90
55693;DHT22;41590;53.366;5.212;2023-04-21T08:49:18;11.60;99.90
55693;DHT22;41590;53.366;5.212;2023-04-21T08:52:01;12.00;99.90
55693;DHT22;41590;53.366;5.212;2023-04-21T08:54:49;11.80;99.90
55693;DHT22;41590;53.366;5.212;2023-04-21T08:57:20;12.10;99.90
55693;DHT22;41590;53.366;5.212;2023-04-21T08:59:51;12.10;99.90
55693;DHT22;41590;53.366;5.212;2023-04-21T09:02:21;11.80;99.90
55693;DHT22;41590;53.366;5.212;2023-04-21T09:10:05;12.20;99.90
55693;DHT22;41590;53.366;5.212;2023-04-21T09:12:33;12.80;99.90
55693;DHT22;41590;53.366;5.212;2023-04-21T09:15:05;12.60;99.90
55693;DHT22;41590;53.366;5.212;2023-04-21T09:17:31;12.90;99.90
55693;DHT22;41590;53.366;5.212;2023-04-21T09:23:11;12.90;99.90
55693;DHT22;41590;53.366;5.212;2023-04-21T09:25:50;13.00;99.90
